»·PEaware :: KLM4657 KLAX-KLAS

KLM4657 :: KLAX-KLAS

FLIGHT INFORMATION

Flight Status: Arrived
Operator:
KLM
More flights by this operator :: More flights under this callsign
Pilot: Daniel P. (20187)
Aircraft: BOEING 737-800
(B738)
More flights by this aircraft type
Origin: KLAX Los Angeles Intl
United States
Destination: KLAS McCarran Intl
United States
More flights between these airports :: More routes between these airports
Route: ORCKA3 MISEN KEPEC6
File this flight plan on PilotEdge
Remarks:
Altitude:
(Current/Filed)
25,000ft
Speed:
(Current/Filed)
400kts
Departed: 09-Nov-18 08:21 AM
Arrived: 09-Nov-18 09:12 AM
Distance/Time
Traveled:
206nm/0:51
Distance/Time
To Go:
Arrived

Flight Plot

Page will automatically refresh every two minutes.

Flight plan parsing failed; only flown route is shown


Map Options




Map Legend


Flown Route
Filed Route
Departure Airport
Arrival Airport
Navaid (VOR, NDB)
Fix

Horizontal Profiles

Position Reports

Time Latitude Longitude Heading Altitude Ground
Speed
09-Nov-18 07:27 33.932516 -118.404731 172 121ft 0kts
09-Nov-18 07:28 33.932516 -118.404731 172 121ft 0kts
09-Nov-18 07:29 33.932516 -118.404731 172 121ft 0kts
09-Nov-18 07:30 33.932516 -118.404731 172 121ft 0kts
09-Nov-18 07:31 33.932516 -118.404731 172 121ft 0kts
09-Nov-18 07:32 33.932516 -118.404731 172 121ft 0kts
09-Nov-18 07:33 33.932516 -118.404731 172 121ft 0kts
09-Nov-18 07:34 33.932516 -118.404731 172 121ft 0kts
09-Nov-18 07:35 33.932516 -118.404731 172 121ft 0kts
09-Nov-18 07:36 33.932516 -118.404731 172 121ft 0kts
09-Nov-18 07:37 33.932516 -118.404731 172 121ft 0kts
09-Nov-18 07:38 33.932516 -118.404731 172 121ft 0kts
09-Nov-18 07:39 33.932516 -118.404731 172 121ft 0kts
09-Nov-18 07:40 33.932516 -118.404731 172 121ft 0kts
09-Nov-18 07:41 33.932516 -118.404731 172 121ft 0kts
09-Nov-18 07:42 33.932516 -118.404731 172 121ft 0kts
09-Nov-18 07:43 33.932516 -118.404731 172 121ft 0kts
09-Nov-18 07:44 33.932516 -118.404731 172 121ft 0kts
09-Nov-18 07:45 33.932516 -118.404731 172 121ft 0kts
09-Nov-18 07:46 33.932516 -118.404731 172 121ft 0kts
09-Nov-18 07:47 33.932516 -118.404731 172 121ft 0kts
09-Nov-18 07:48 33.932516 -118.404731 172 121ft 0kts
09-Nov-18 07:49 33.932516 -118.404731 172 121ft 0kts
09-Nov-18 07:50 33.932516 -118.404731 172 121ft 0kts
09-Nov-18 07:51 33.932516 -118.404731 172 121ft 0kts
09-Nov-18 07:52 33.932516 -118.404731 172 121ft 0kts
09-Nov-18 07:53 33.932516 -118.404731 172 121ft 0kts
09-Nov-18 07:54 33.932516 -118.404731 172 121ft 0kts
09-Nov-18 07:55 33.932516 -118.404731 172 121ft 0kts
09-Nov-18 07:56 33.932516 -118.404731 172 121ft 0kts
09-Nov-18 07:57 33.932516 -118.404731 172 121ft 0kts
09-Nov-18 07:58 33.932516 -118.404731 172 121ft 0kts
09-Nov-18 07:59 33.932516 -118.404731 172 121ft 0kts
09-Nov-18 08:00 33.932516 -118.404731 172 121ft 0kts
09-Nov-18 08:01 33.932516 -118.404731 172 121ft 0kts
09-Nov-18 08:02 33.932516 -118.404731 172 121ft 0kts
09-Nov-18 08:03 33.932516 -118.404731 172 121ft 0kts
09-Nov-18 08:04 33.932516 -118.404731 172 121ft 0kts
09-Nov-18 08:05 33.932516 -118.404731 172 121ft 0kts
09-Nov-18 08:06 33.932516 -118.404731 172 121ft 0kts
09-Nov-18 08:07 33.932516 -118.404731 172 121ft 0kts
09-Nov-18 08:08 33.932516 -118.404731 172 121ft 0kts
09-Nov-18 08:09 33.932516 -118.404731 172 121ft 0kts
09-Nov-18 08:10 33.932516 -118.404731 172 121ft 0kts
09-Nov-18 08:11 33.932563 -118.404739 173 121ft 2kts
09-Nov-18 08:12 33.933146 -118.404831 172 122ft 2kts
09-Nov-18 08:13 33.933669 -118.404978 140 122ft 2kts
09-Nov-18 08:14 33.933808 -118.405467 82 122ft 0kts
09-Nov-18 08:15 33.933808 -118.405467 82 122ft 0kts
09-Nov-18 08:16 33.933808 -118.405467 82 122ft 0kts
09-Nov-18 08:17 33.933988 -118.403639 83 120ft 13kts
09-Nov-18 08:18 33.934549 -118.398097 83 112ft 20kts
09-Nov-18 08:19 33.935242 -118.391347 82 106ft 21kts
09-Nov-18 08:20 33.935924 -118.384689 83 103ft 17kts
09-Nov-18 08:21 33.936373 -118.382820 19 99ft 0kts
09-Nov-18 08:22 33.936373 -118.382820 19 99ft 0kts
09-Nov-18 08:23 33.936786 -118.382804 354 99ft 9kts
09-Nov-18 08:24 33.935034 -118.406127 263 190ft 178kts
09-Nov-18 08:25 33.924524 -118.474494 232 2192ft 239kts
09-Nov-18 08:26 33.860169 -118.490864 183 4662ft 249kts
09-Nov-18 08:27 33.805184 -118.533070 241 6876ft 258kts
09-Nov-18 08:28 33.765522 -118.603841 211 6978ft 261kts
09-Nov-18 08:29 33.702249 -118.585186 119 8323ft 258kts
09-Nov-18 08:30 33.717608 -118.511250 34 10206ft 263kts
09-Nov-18 08:31 33.786125 -118.459674 31 12714ft 308kts
09-Nov-18 08:32 33.871789 -118.442835 4 15171ft 320kts
09-Nov-18 08:33 33.953730 -118.406478 46 18078ft 334kts
09-Nov-18 08:34 34.004213 -118.310357 53 20635ft 351kts
09-Nov-18 08:35 34.059395 -118.211594 52 22885ft 367kts
09-Nov-18 08:36 34.116252 -118.110614 51 24133ft 395kts
09-Nov-18 08:37 34.180678 -117.996155 51 25361ft 432kts
09-Nov-18 08:38 34.248976 -117.874324 51 27122ft 446kts
09-Nov-18 08:39 34.318338 -117.750239 51 27200ft 446kts
09-Nov-18 08:40 34.389033 -117.627398 49 27271ft 445kts
09-Nov-18 08:41 34.461029 -117.506690 49 27292ft 445kts
09-Nov-18 08:42 34.533244 -117.385199 49 26993ft 441kts
09-Nov-18 08:43 34.603709 -117.266152 50 25715ft 421kts
09-Nov-18 08:44 34.670373 -117.153170 50 25279ft 414kts
09-Nov-18 08:45 34.736873 -117.040166 50 24966ft 409kts
09-Nov-18 08:46 34.802587 -116.928154 50 24652ft 405kts
09-Nov-18 08:47 34.865933 -116.819667 50 24494ft 366kts
09-Nov-18 08:48 34.921142 -116.724826 50 24395ft 339kts
09-Nov-18 08:49 34.974728 -116.630348 51 24413ft 339kts
09-Nov-18 08:50 35.027885 -116.536157 52 24413ft 339kts
09-Nov-18 08:51 35.081371 -116.441118 52 24412ft 340kts
09-Nov-18 08:52 35.140730 -116.354161 42 24414ft 338kts
09-Nov-18 08:53 35.205978 -116.272896 43 23930ft 335kts
09-Nov-18 08:54 35.270585 -116.192025 43 23338ft 331kts
09-Nov-18 08:55 35.324047 -116.124885 43 22098ft 327kts
09-Nov-18 08:56 35.385978 -116.046879 43 20503ft 315kts
09-Nov-18 08:57 35.455183 -115.959488 44 18671ft 311kts
09-Nov-18 08:58 35.504739 -115.896750 44 17338ft 305kts
09-Nov-18 08:59 35.562916 -115.822957 44 15736ft 298kts
09-Nov-18 09:00 35.619999 -115.750447 45 14155ft 293kts
09-Nov-18 09:01 35.675313 -115.679939 45 13230ft 278kts
09-Nov-18 09:02 35.725542 -115.606544 57 12626ft 281kts
09-Nov-18 09:03 35.761146 -115.522933 61 11417ft 273kts
09-Nov-18 09:04 35.795740 -115.440228 61 10206ft 270kts
09-Nov-18 09:05 35.829830 -115.358627 60 9234ft 263kts
09-Nov-18 09:06 35.863245 -115.278529 61 8819ft 270kts
09-Nov-18 09:07 35.897214 -115.197037 61 7614ft 266kts
09-Nov-18 09:08 35.929284 -115.119858 61 7007ft 261kts
09-Nov-18 09:09 35.961621 -115.040936 60 6920ft 261kts
09-Nov-18 09:10 36.010433 -114.985485 9 6241ft 234kts
09-Nov-18 09:11 36.066225 -114.976408 337 5131ft 190kts
09-Nov-18 09:12 36.071310 -115.030340 275 3454ft 154kts
09-Nov-18 09:13 36.073510 -115.080094 272 2756ft 150kts
09-Nov-18 09:14 36.073619 -115.131952 273 2068ft 145kts
09-Nov-18 09:15 36.074530 -115.154728 298 2137ft 2kts
09-Nov-18 09:16 36.074548 -115.154768 298 2137ft 0kts
09-Nov-18 09:17 36.074548 -115.154768 298 2137ft 0kts
09-Nov-18 09:18 36.075198 -115.156020 307 2140ft 13kts
09-Nov-18 09:19 36.077926 -115.157908 62 2143ft 14kts
09-Nov-18 09:20 36.078915 -115.152468 103 2119ft 16kts
09-Nov-18 09:21 36.078310 -115.144211 95 2091ft 22kts
09-Nov-18 09:22 36.079677 -115.139561 355 2074ft 4kts
09-Nov-18 09:23 36.079871 -115.139582 353 2073ft 0kts
09-Nov-18 09:24 36.079871 -115.139582 353 2073ft 0kts
09-Nov-18 09:25 36.079871 -115.139582 353 2073ft 0kts

Navigation Log

Ident Type
Flight plan parsing failed, navigation log unavailable